Time;durP1;ratioP1;P1;durP2;ratioP2;P2;SDS_P1;SDS_P2;PMS_P1;PMS_P2;Temp;Humidity;BMP_temperature;BMP_pressure;BME280_temperature;BME280_humidity;BME280_pressure;Samples;Min_cycle;Max_cycle;Signal;HPM_P1;HPM_P2
2022/07/14 00:01:18;;;;;;;2.42;1.20;;;;;;;25.23;30.48;99768.72;4494222;31;34306;-61
2022/07/14 00:03:46;;;;;;;3.65;1.40;;;;;;;25.29;30.36;99776.94;4483416;31;32196;-60
2022/07/14 00:06:15;;;;;;;3.80;1.20;;;;;;;25.30;30.46;99775.91;4495135;31;35254;-62
2022/07/14 00:08:45;;;;;;;9.20;1.65;;;;;;;25.22;30.61;99778.84;4497038;31;35039;-60
2022/07/14 00:11:13;;;;;;;3.22;1.10;;;;;;;25.16;30.90;99768.72;4489831;31;33799;-64
2022/07/14 00:13:40;;;;;;;3.53;1.20;;;;;;;25.22;30.88;99778.84;4496033;31;34707;-61
2022/07/14 00:16:08;;;;;;;6.47;2.17;;;;;;;25.12;30.83;99767.44;4493748;31;33670;-61
2022/07/14 00:18:43;;;;;;;10.45;1.55;;;;;;;25.10;31.07;99772.25;4493252;31;34122;-62
2022/07/14 00:21:14;;;;;;;5.07;1.50;;;;;;;24.99;31.29;99767.41;4494862;31;33802;-61
2022/07/14 00:23:44;;;;;;;8.13;1.42;;;;;;;25.01;31.38;99773.53;4487993;31;34770;-65
2022/07/14 00:26:12;;;;;;;6.12;1.58;;;;;;;25.03;31.43;99779.63;4498152;31;33049;-65
2022/07/14 00:28:41;;;;;;;4.40;1.42;;;;;;;24.99;31.35;99779.19;4495431;31;34107;-64
2022/07/14 00:31:10;;;;;;;2.62;1.25;;;;;;;24.97;31.30;99772.22;4494425;31;34164;-62
2022/07/14 00:33:39;;;;;;;8.60;1.98;;;;;;;24.93;31.01;99769.06;4495430;31;33232;-64
2022/07/14 00:36:08;;;;;;;4.05;1.10;;;;;;;24.96;31.18;99771.41;4493172;31;33506;-62
2022/07/14 00:38:35;;;;;;;4.78;1.40;;;;;;;24.90;31.04;99771.38;4497996;31;34140;-63
2022/07/14 00:41:03;;;;;;;6.60;1.58;;;;;;;24.94;30.98;99769.91;4494778;31;34003;-65
2022/07/14 00:43:31;;;;;;;4.00;1.35;;;;;;;24.92;30.91;99767.41;4492325;31;34238;-65
2022/07/14 00:45:59;;;;;;;5.55;1.65;;;;;;;24.92;31.00;99772.87;4496661;31;34859;-65
2022/07/14 00:48:27;;;;;;;3.60;1.42;;;;;;;24.92;31.02;99777.50;4495677;31;33854;-62
2022/07/14 00:50:55;;;;;;;4.45;1.35;;;;;;;24.96;31.42;99767.81;4496048;31;34191;-62
2022/07/14 00:53:23;;;;;;;3.72;1.30;;;;;;;24.65;32.02;99769.19;4496950;31;33514;-62
2022/07/14 00:55:50;;;;;;;2.20;1.10;;;;;;;24.60;32.16;99772.56;4497365;31;33895;-62
2022/07/14 00:58:18;;;;;;;3.53;1.33;;;;;;;24.65;31.92;99766.47;4495732;31;34874;-64
2022/07/14 01:00:46;;;;;;;3.33;1.17;;;;;;;24.98;31.37;99768.47;4497526;31;33891;-62
2022/07/14 01:03:14;;;;;;;4.85;1.30;;;;;;;24.93;31.57;99768.22;4491997;31;33375;-65
2022/07/14 01:05:41;;;;;;;3.40;1.17;;;;;;;24.87;31.70;99767.16;4494668;31;32536;-61
2022/07/14 01:08:09;;;;;;;3.65;1.50;;;;;;;24.84;31.80;99773.03;4491103;31;32493;-62
2022/07/14 01:10:37;;;;;;;6.80;1.80;;;;;;;24.85;31.69;99772.84;4495623;31;34104;-60
2022/07/14 01:13:05;;;;;;;2.80;1.37;;;;;;;24.81;31.62;99774.28;4495226;31;32623;-62
2022/07/14 01:15:33;;;;;;;3.03;1.25;;;;;;;24.84;31.54;99775.78;4495856;31;33971;-61
2022/07/14 01:18:03;;;;;;;3.42;1.52;;;;;;;24.68;32.09;99773.41;4496768;31;32844;-64
2022/07/14 01:20:31;;;;;;;3.05;1.30;;;;;;;24.73;32.17;99773.66;4493956;31;32607;-61
2022/07/14 01:22:59;;;;;;;2.92;1.05;;;;;;;24.75;32.04;99775.16;4492331;31;34625;-60
2022/07/14 01:25:26;;;;;;;3.30;1.20;;;;;;;24.76;32.16;99776.81;4497491;31;34095;-60
2022/07/14 01:27:54;;;;;;;3.95;1.35;;;;;;;24.70;32.16;99769.44;4496301;31;34910;-60
2022/07/14 01:30:26;;;;;;;4.15;1.27;;;;;;;24.63;32.64;99774.88;4495510;31;34956;-62
2022/07/14 01:32:53;;;;;;;4.22;1.50;;;;;;;24.63;32.32;99763.94;4496593;31;33816;-64
2022/07/14 01:35:21;;;;;;;5.07;1.10;;;;;;;24.62;32.30;99772.34;4494742;31;33504;-63
2022/07/14 01:37:50;;;;;;;3.62;1.40;;;;;;;24.55;32.80;99772.31;4492292;31;34717;-61
2022/07/14 01:40:18;;;;;;;4.62;1.75;;;;;;;24.52;32.96;99764.53;4490041;31;33897;-60
2022/07/14 01:42:46;;;;;;;2.70;1.30;;;;;;;24.50;33.06;99766.63;4495467;31;33393;-60
2022/07/14 01:45:14;;;;;;;2.53;1.30;;;;;;;24.49;32.98;99769.56;4495573;31;33467;-65
2022/07/14 01:47:42;;;;;;;2.75;1.50;;;;;;;24.46;33.16;99764.50;4495252;31;34989;-63
2022/07/14 01:50:10;;;;;;;4.05;1.40;;;;;;;24.38;33.10;99765.50;4493921;31;34158;-61
2022/07/14 01:52:38;;;;;;;3.65;1.52;;;;;;;24.46;32.92;99767.22;4495579;31;34471;-63
2022/07/14 01:55:06;;;;;;;3.03;1.33;;;;;;;24.43;33.19;99764.91;4494058;31;33928;-65
2022/07/14 01:57:34;;;;;;;5.00;1.48;;;;;;;24.39;33.03;99759.81;4497596;31;33964;-64
2022/07/14 02:00:03;;;;;;;3.12;1.35;;;;;;;24.40;33.25;99764.25;4489976;31;32544;-61
2022/07/14 02:02:32;;;;;;;3.92;1.50;;;;;;;24.45;33.17;99757.34;4489385;31;33264;-66
2022/07/14 02:05:01;;;;;;;3.80;1.58;;;;;;;24.50;33.14;99755.69;4489404;31;33485;-65
2022/07/14 02:07:28;;;;;;;4.22;1.35;;;;;;;24.43;33.15;99757.56;4495377;31;33686;-63
2022/07/14 02:12:43;;;;;;;3.08;1.58;;;;;;;24.36;33.84;99760.22;4487029;31;33087;-65
2022/07/14 02:15:10;;;;;;;8.35;1.70;;;;;;;24.38;33.51;99763.59;4496182;31;33330;-64
2022/07/14 02:17:38;;;;;;;3.85;1.40;;;;;;;24.46;33.12;99759.88;4497124;31;34082;-62
2022/07/14 02:20:08;;;;;;;5.18;1.50;;;;;;;24.43;33.30;99756.69;4494635;31;33872;-64
2022/07/14 02:22:35;;;;;;;2.75;1.17;;;;;;;24.39;33.68;99756.22;4496908;31;34453;-62
2022/07/14 02:25:03;;;;;;;3.03;1.52;;;;;;;24.35;34.07;99760.44;4494696;31;35382;-62
2022/07/14 02:27:31;;;;;;;3.03;1.10;;;;;;;24.52;33.86;99758.22;4490857;31;32775;-62
2022/07/14 02:29:59;;;;;;;3.40;1.12;;;;;;;24.43;33.95;99765.78;4495917;31;32541;-60
2022/07/14 02:32:29;;;;;;;2.60;1.48;;;;;;;24.49;33.87;99766.81;4492982;31;33213;-65
2022/07/14 02:34:58;;;;;;;3.22;1.48;;;;;;;24.43;34.06;99770.38;4486787;31;34755;-63
2022/07/14 02:37:25;;;;;;;3.97;1.50;;;;;;;24.40;34.10;99764.25;4495146;31;32621;-59
2022/07/14 02:39:53;;;;;;;2.97;1.50;;;;;;;24.32;34.14;99772.63;4495930;31;34340;-60
2022/07/14 02:42:21;;;;;;;4.40;1.60;;;;;;;24.36;34.25;99773.91;4491515;31;33317;-59
2022/07/14 02:44:49;;;;;;;4.75;1.40;;;;;;;24.23;34.44;99771.09;4495861;31;33432;-59
2022/07/14 02:47:16;;;;;;;3.50;1.52;;;;;;;24.34;34.30;99772.44;4496046;31;34061;-61
2022/07/14 02:49:44;;;;;;;4.03;1.50;;;;;;;24.30;34.35;99772.00;4497167;31;33931;-63
2022/07/14 02:52:13;;;;;;;9.35;1.90;;;;;;;24.24;34.31;99781.00;4489058;31;33572;-60
2022/07/14 02:54:41;;;;;;;4.05;1.67;;;;;;;24.35;34.26;99774.13;4497522;31;33764;-59
2022/07/14 02:57:08;;;;;;;4.97;1.90;;;;;;;24.40;34.25;99780.66;4492437;31;33990;-61
2022/07/14 02:59:41;;;;;;;8.43;2.37;;;;;;;24.23;34.72;99786.66;4497031;31;34985;-60
2022/07/14 03:02:09;;;;;;;3.60;1.48;;;;;;;24.47;34.39;99779.87;4493606;31;34240;-61
2022/07/14 03:04:37;;;;;;;3.97;1.73;;;;;;;24.39;34.53;99775.38;4496829;31;33854;-62
2022/07/14 03:07:05;;;;;;;4.03;1.70;;;;;;;24.47;34.56;99785.34;4496689;31;33932;-63
2022/07/14 03:09:32;;;;;;;2.72;1.40;;;;;;;24.27;35.18;99788.81;4494798;31;33912;-62
2022/07/14 03:12:01;;;;;;;4.32;1.52;;;;;;;24.35;34.88;99780.41;4492701;31;32001;-63
2022/07/14 03:14:29;;;;;;;4.05;1.58;;;;;;;24.39;34.91;99783.59;4490217;31;33768;-64
2022/07/14 03:16:57;;;;;;;3.17;1.50;;;;;;;24.37;35.04;99794.75;4496901;31;34173;-62
2022/07/14 03:19:28;;;;;;;3.83;1.55;;;;;;;24.32;35.10;99783.56;4495626;31;33889;-64
2022/07/14 03:21:55;;;;;;;3.75;1.62;;;;;;;24.34;34.98;99784.22;4495256;31;33356;-63
2022/07/14 03:24:23;;;;;;;4.35;1.70;;;;;;;24.46;34.94;99789.13;4497114;31;32349;-64
2022/07/14 03:26:51;;;;;;;3.72;1.83;;;;;;;24.46;35.00;99780.91;4493694;31;32963;-63
2022/07/14 03:29:19;;;;;;;4.22;1.73;;;;;;;24.56;34.88;99779.50;4494956;31;33880;-61
2022/07/14 03:31:47;;;;;;;4.12;2.25;;;;;;;24.58;34.89;99777.38;4492720;31;33214;-61
2022/07/14 03:34:15;;;;;;;3.95;1.83;;;;;;;24.64;34.79;99787.50;4496485;31;32465;-62
2022/07/14 03:36:43;;;;;;;8.25;1.83;;;;;;;24.69;34.85;99780.56;4494584;31;34044;-61
2022/07/14 03:39:16;;;;;;;5.00;2.10;;;;;;;24.67;35.00;99779.97;4494855;31;33637;-61
2022/07/14 03:41:44;;;;;;;3.67;1.85;;;;;;;24.69;35.03;99784.19;4494690;31;33498;-66
2022/07/14 03:44:12;;;;;;;4.43;1.90;;;;;;;24.58;35.49;99795.69;4492598;31;33863;-63
2022/07/14 03:46:40;;;;;;;3.45;1.60;;;;;;;24.55;35.61;99785.16;4485974;31;33899;-63
2022/07/14 03:49:08;;;;;;;4.43;1.62;;;;;;;24.40;35.78;99783.41;4494588;31;34132;-63
2022/07/14 03:51:43;;;;;;;4.00;1.52;;;;;;;24.43;35.78;99789.53;4495771;31;33893;-65
2022/07/14 03:54:12;;;;;;;5.78;1.77;;;;;;;24.32;36.23;99797.25;4494897;31;34880;-61
2022/07/14 03:56:40;;;;;;;3.75;1.60;;;;;;;24.33;36.29;99796.22;4493185;31;34050;-62
2022/07/14 03:59:10;;;;;;;7.07;1.77;;;;;;;24.14;36.67;99795.06;4496851;31;33879;-62
2022/07/14 04:01:38;;;;;;;5.28;2.08;;;;;;;24.17;36.80;99794.66;4495217;31;33457;-64
2022/07/14 04:04:06;;;;;;;4.93;1.85;;;;;;;24.11;36.90;99791.88;4492931;31;32992;-65
2022/07/14 04:06:34;;;;;;;5.97;2.25;;;;;;;24.31;36.63;99794.72;4493968;31;34915;-63
2022/07/14 04:09:02;;;;;;;5.60;1.83;;;;;;;24.31;36.65;99789.25;4494053;31;34960;-63
2022/07/14 04:11:30;;;;;;;6.50;2.50;;;;;;;24.42;36.58;99787.84;4493390;31;32280;-62
2022/07/14 04:13:59;;;;;;;5.95;1.85;;;;;;;24.52;36.62;99786.41;4490955;31;33746;-61
2022/07/14 04:16:27;;;;;;;7.78;1.95;;;;;;;24.63;36.49;99785.84;4494263;31;32710;-63
2022/07/14 04:18:56;;;;;;;6.37;2.37;;;;;;;24.77;36.21;99789.44;4492784;31;35181;-63
2022/07/14 04:21:24;;;;;;;10.60;2.40;;;;;;;24.74;36.21;99784.38;4492206;31;32232;-61
2022/07/14 04:23:51;;;;;;;5.68;2.28;;;;;;;24.78;36.28;99784.81;4494621;31;34867;-62
2022/07/14 04:26:19;;;;;;;4.35;2.00;;;;;;;24.83;36.04;99782.31;4490883;31;33923;-63
2022/07/14 04:28:47;;;;;;;4.65;2.00;;;;;;;24.87;36.14;99784.41;4493841;31;32543;-64
2022/07/14 04:31:14;;;;;;;5.82;2.08;;;;;;;24.87;36.28;99789.91;4488492;31;32484;-61
2022/07/14 04:33:43;;;;;;;5.68;2.10;;;;;;;24.90;36.38;99785.91;4494305;31;32431;-62
2022/07/14 04:36:10;;;;;;;5.97;2.05;;;;;;;25.00;36.15;99785.50;4497372;31;32392;-64
2022/07/14 04:38:38;;;;;;;4.93;2.37;;;;;;;25.21;35.85;99784.53;4492994;31;32943;-62
2022/07/14 04:41:07;;;;;;;7.57;2.50;;;;;;;25.30;35.73;99783.28;4497763;31;34355;-62
2022/07/14 04:43:36;;;;;;;6.62;2.65;;;;;;;25.50;35.54;99786.88;4497112;31;33733;-61
2022/07/14 04:46:05;;;;;;;5.05;2.10;;;;;;;25.61;35.55;99779.91;4498406;31;33653;-61
2022/07/14 04:52:01;;;;;;;5.93;2.15;;;;;;;25.74;35.14;99779.87;4488680;31;32381;-63
2022/07/14 04:54:08;;;;;;;5.35;2.20;;;;;;;26.02;35.42;99787.03;4496895;31;33697;-62
2022/07/14 04:56:36;;;;;;;4.32;1.90;;;;;;;26.12;35.19;99781.97;4499866;31;34265;-61
2022/07/14 04:59:25;;;;;;;5.30;2.30;;;;;;;26.17;35.04;99784.91;4486792;31;33993;-61
2022/07/14 05:01:53;;;;;;;3.92;2.15;;;;;;;26.08;36.29;99788.94;4499385;31;34724;-65
2022/07/14 05:04:22;;;;;;;6.15;2.05;;;;;;;26.20;36.47;99780.91;4494703;31;33820;-64
2022/07/14 05:06:52;;;;;;;6.55;2.53;;;;;;;26.32;36.04;99786.53;4497849;31;33897;-64
2022/07/14 05:09:21;;;;;;;8.25;2.12;;;;;;;26.27;36.26;99789.09;4498564;31;34055;-62
2022/07/14 05:11:49;;;;;;;7.32;1.90;;;;;;;26.45;35.43;99781.00;4493582;31;33674;-65
2022/07/14 05:14:18;;;;;;;3.70;1.77;;;;;;;26.55;35.58;99778.69;4491763;31;32512;-64
2022/07/14 05:16:48;;;;;;;6.20;2.00;;;;;;;26.59;34.95;99782.69;4488229;31;33582;-61
2022/07/14 05:19:38;;;;;;;6.00;2.03;;;;;;;26.67;34.73;99785.16;4498556;31;34173;-62
2022/07/14 05:22:05;;;;;;;5.87;1.80;;;;;;;26.79;34.74;99792.72;4488364;31;32244;-61
2022/07/14 05:24:34;;;;;;;3.58;1.42;;;;;;;27.00;34.33;99799.75;4496657;31;32736;-64
2022/07/14 05:27:03;;;;;;;3.05;1.80;;;;;;;27.01;34.78;99805.06;4488071;31;34209;-62
2022/07/14 05:29:32;;;;;;;3.40;1.77;;;;;;;27.17;33.25;99795.47;4497907;31;33581;-64
2022/07/14 05:32:00;;;;;;;5.32;1.55;;;;;;;27.20;33.00;99796.94;4498819;31;34362;-65
2022/07/14 05:34:30;;;;;;;5.53;1.92;;;;;;;27.37;32.84;99789.84;4499602;31;33073;-64
2022/07/14 05:36:59;;;;;;;1.98;1.17;;;;;;;27.12;34.06;99785.09;4498771;31;34123;-63
2022/07/14 05:39:27;;;;;;;3.45;1.67;;;;;;;27.30;33.37;99794.53;4499363;31;33988;-66
2022/07/14 05:41:55;;;;;;;3.22;1.45;;;;;;;27.59;33.41;99785.63;4498108;31;34402;-62
2022/07/14 05:44:23;;;;;;;3.30;1.42;;;;;;;27.34;33.10;99784.78;4485616;31;32183;-63
2022/07/14 05:46:50;;;;;;;3.10;1.25;;;;;;;27.39;33.05;99783.06;4496289;31;33818;-65
2022/07/14 05:49:18;;;;;;;2.95;1.20;;;;;;;27.50;33.34;99784.22;4483204;31;33681;-62
2022/07/14 05:51:50;;;;;;;3.12;1.52;;;;;;;27.63;33.78;99781.34;4492490;31;34932;-62
2022/07/14 05:54:18;;;;;;;3.33;1.67;;;;;;;27.17;33.93;99784.50;4498382;31;34094;-63
2022/07/14 05:56:46;;;;;;;5.75;1.30;;;;;;;27.46;33.21;99777.50;4498152;31;33620;-63
2022/07/14 05:59:14;;;;;;;2.33;1.52;;;;;;;27.98;32.84;99775.34;4491572;31;35369;-63
2022/07/14 06:02:03;;;;;;;3.95;2.03;;;;;;;28.06;31.88;99766.81;4483125;31;32197;-65
2022/07/14 06:04:32;;;;;;;3.00;1.55;;;;;;;28.38;32.06;99765.78;4496412;31;34815;-62
2022/07/14 06:07:00;;;;;;;3.72;1.48;;;;;;;28.25;32.51;99769.53;4492075;31;34874;-63
2022/07/14 06:09:27;;;;;;;2.97;1.50;;;;;;;28.27;31.90;99765.50;4482911;31;33622;-62
2022/07/14 06:11:55;;;;;;;2.80;1.40;;;;;;;28.59;31.49;99761.75;4492559;31;31767;-63
2022/07/14 06:14:24;;;;;;;5.12;1.40;;;;;;;28.71;30.92;99766.25;4498658;31;33842;-65
2022/07/14 06:16:52;;;;;;;4.00;1.67;;;;;;;28.28;32.02;99760.81;4496137;31;33574;-64
2022/07/14 06:19:20;;;;;;;2.20;1.20;;;;;;;28.42;32.42;99769.81;4488209;31;32832;-62
2022/07/14 06:21:47;;;;;;;3.53;1.45;;;;;;;28.40;32.64;99769.19;4498987;31;33615;-63
2022/07/14 06:24:15;;;;;;;2.95;1.40;;;;;;;28.37;32.97;99769.62;4495528;31;34014;-61
2022/07/14 06:26:43;;;;;;;5.07;1.70;;;;;;;28.64;32.88;99759.16;4496703;31;33962;-63
2022/07/14 06:29:12;;;;;;;4.20;1.85;;;;;;;28.62;32.21;99769.56;4491608;31;33712;-65
2022/07/14 06:31:40;;;;;;;2.70;1.30;;;;;;;28.51;30.36;99763.75;4493090;31;33373;-66
2022/07/14 06:34:09;;;;;;;3.30;1.35;;;;;;;28.26;29.87;99765.75;4499412;31;33798;-65
2022/07/14 06:36:36;;;;;;;2.47;1.25;;;;;;;28.15;30.49;99761.81;4484987;31;32471;-63
2022/07/14 06:39:04;;;;;;;6.07;2.33;;;;;;;28.68;29.83;99758.44;4489533;31;32611;-65
2022/07/14 06:41:33;;;;;;;4.45;1.45;;;;;;;28.32;29.96;99762.06;4493803;31;33326;-63
2022/07/14 06:44:02;;;;;;;3.33;1.20;;;;;;;28.63;28.78;99755.53;4489635;31;32428;-65
2022/07/14 06:46:37;;;;;;;1.92;1.23;;;;;;;28.74;29.36;99756.69;4483856;31;33174;-64
2022/07/14 06:49:05;;;;;;;3.05;1.30;;;;;;;28.28;28.88;99761.69;4495007;31;33964;-66
2022/07/14 06:51:32;;;;;;;2.80;1.48;;;;;;;28.85;29.56;99752.28;4487945;31;33078;-63
2022/07/14 06:54:00;;;;;;;4.40;1.30;;;;;;;29.02;27.90;99758.81;4495427;31;35510;-63
2022/07/14 06:56:28;;;;;;;4.47;1.23;;;;;;;29.11;27.88;99753.84;4492123;31;34354;-66
2022/07/14 06:58:55;;;;;;;6.75;1.40;;;;;;;28.90;27.95;99750.50;4493659;31;33628;-64
2022/07/14 07:01:23;;;;;;;2.03;1.05;;;;;;;29.16;27.40;99757.56;4494846;31;34692;-63
2022/07/14 07:03:51;;;;;;;2.03;1.10;;;;;;;29.42;27.51;99764.56;4490891;31;33675;-63
2022/07/14 07:07:01;;;;;;;5.15;1.40;;;;;;;29.22;27.17;99764.06;4501231;31;33671;-63
2022/07/14 07:09:12;;;;;;;2.53;1.10;;;;;;;29.37;26.91;99764.41;4476682;31;33908;-63
2022/07/14 07:11:41;;;;;;;4.93;1.40;;;;;;;29.33;26.62;99759.63;4492303;31;34672;-65
2022/07/14 07:14:10;;;;;;;2.55;1.20;;;;;;;29.29;26.49;99756.50;4498732;31;35064;-64
2022/07/14 07:16:46;;;;;;;4.80;1.40;;;;;;;29.52;26.33;99758.47;4495315;31;34054;-65
2022/07/14 07:19:14;;;;;;;2.00;1.05;;;;;;;29.82;26.51;99752.00;4489161;31;32401;-62
2022/07/14 07:21:42;;;;;;;4.07;1.50;;;;;;;29.67;26.76;99750.59;4496674;31;33230;-64
2022/07/14 07:24:10;;;;;;;4.45;1.30;;;;;;;29.80;26.89;99754.19;4497559;31;32692;-64
2022/07/14 07:26:39;;;;;;;3.30;1.55;;;;;;;29.79;27.09;99756.13;4498134;31;32760;-63
2022/07/14 07:29:08;;;;;;;4.25;1.52;;;;;;;29.91;26.24;99751.41;4490869;31;35237;-62
2022/07/14 07:31:35;;;;;;;8.45;1.70;;;;;;;29.26;27.60;99745.97;4497865;31;33672;-64
2022/07/14 07:34:03;;;;;;;2.67;1.58;;;;;;;29.71;27.17;99742.69;4497926;31;33917;-66
2022/07/14 07:36:31;;;;;;;7.85;1.60;;;;;;;30.03;27.05;99747.81;4484809;31;33698;-64
2022/07/14 07:38:59;;;;;;;3.45;1.37;;;;;;;30.20;27.05;99743.25;4492798;31;34267;-63
2022/07/14 07:41:26;;;;;;;2.60;1.30;;;;;;;30.37;26.66;99741.41;4499509;31;34812;-65
2022/07/14 07:43:54;;;;;;;3.25;1.30;;;;;;;30.32;26.99;99741.28;4492731;31;33818;-62
2022/07/14 07:46:22;;;;;;;5.37;1.50;;;;;;;30.53;26.69;99737.03;4495512;31;33198;-63
2022/07/14 07:48:50;;;;;;;5.78;1.60;;;;;;;30.42;26.10;99726.87;4489936;31;34913;-63
2022/07/14 07:51:20;;;;;;;3.53;1.50;;;;;;;30.14;26.63;99733.13;4494306;31;32768;-65
2022/07/14 07:53:48;;;;;;;4.78;1.50;;;;;;;30.59;26.30;99729.69;4493540;31;34938;-64
2022/07/14 07:56:15;;;;;;;4.37;1.67;;;;;;;30.74;25.96;99732.75;4489620;31;32592;-63
2022/07/14 07:58:43;;;;;;;2.37;1.33;;;;;;;30.48;26.72;99727.81;4481681;31;33512;-63
2022/07/14 08:01:11;;;;;;;3.75;1.60;;;;;;;30.83;25.80;99730.47;4491475;31;33705;-61
2022/07/14 08:03:40;;;;;;;3.70;1.20;;;;;;;30.90;25.98;99728.38;4486501;31;32390;-63
2022/07/14 08:06:11;;;;;;;2.08;1.23;;;;;;;30.84;25.55;99721.06;4493325;31;35077;-64
2022/07/14 08:08:59;;;;;;;2.42;0.90;;;;;;;30.97;25.29;99717.16;4486903;31;33728;-64
2022/07/14 08:11:27;;;;;;;3.25;1.10;;;;;;;31.01;24.43;99716.44;4484309;31;32186;-63
2022/07/14 08:13:55;;;;;;;1.45;1.00;;;;;;;31.09;24.84;99717.94;4496079;31;32604;-63
2022/07/14 08:16:23;;;;;;;4.20;1.40;;;;;;;31.18;24.17;99713.66;4497213;31;35254;-65
2022/07/14 08:18:52;;;;;;;2.42;1.12;;;;;;;30.96;24.48;99712.72;4486802;31;32862;-63
2022/07/14 08:21:20;;;;;;;2.97;1.10;;;;;;;31.37;24.03;99722.59;4485090;31;34731;-66
2022/07/14 08:23:48;;;;;;;3.40;1.40;;;;;;;31.24;24.89;99720.97;4483987;31;32350;-66
2022/07/14 08:26:16;;;;;;;2.95;1.23;;;;;;;31.47;24.52;99716.38;4495669;31;35144;-63
2022/07/14 08:28:43;;;;;;;5.28;1.15;;;;;;;31.49;25.21;99717.81;4489227;31;34280;-63
2022/07/14 08:31:11;;;;;;;2.33;1.10;;;;;;;31.95;23.01;99709.38;4494213;31;33385;-64
2022/07/14 08:33:40;;;;;;;2.85;1.25;;;;;;;31.89;23.30;99699.31;4497933;31;35353;-62
2022/07/14 08:36:08;;;;;;;4.65;1.02;;;;;;;31.30;24.23;99702.50;4491584;31;35502;-63
2022/07/14 08:38:36;;;;;;;2.60;1.00;;;;;;;31.51;23.54;99704.53;4485637;32;33850;-65
2022/07/14 08:41:03;;;;;;;3.22;1.00;;;;;;;31.84;22.80;99701.97;4484995;31;33244;-63
2022/07/14 08:43:31;;;;;;;2.72;1.10;;;;;;;31.85;22.68;99696.19;4490672;31;33557;-63
2022/07/14 08:46:00;;;;;;;2.53;0.95;;;;;;;31.97;22.41;99696.09;4482215;31;34966;-63
2022/07/14 08:48:28;;;;;;;3.78;0.93;;;;;;;32.09;20.82;99698.75;4485067;31;34994;-63
2022/07/14 08:50:56;;;;;;;3.55;1.10;;;;;;;32.23;21.07;99692.56;4495180;31;33497;-64
2022/07/14 08:53:26;;;;;;;2.15;1.00;;;;;;;32.27;21.35;99690.13;4491070;31;33900;-63
2022/07/14 08:55:53;;;;;;;2.92;0.95;;;;;;;32.27;21.74;99694.84;4493364;31;32521;-62
2022/07/14 08:58:21;;;;;;;1.60;0.70;;;;;;;32.47;21.41;99690.38;4501167;31;34114;-63
2022/07/14 09:00:49;;;;;;;1.87;1.10;;;;;;;32.65;20.79;99688.34;4491912;31;31983;-63
2022/07/14 09:03:16;;;;;;;1.83;1.02;;;;;;;32.45;21.62;99681.47;4483511;31;32523;-65
2022/07/14 09:06:05;;;;;;;2.47;0.90;;;;;;;32.67;20.84;99684.22;4492018;31;34337;-63
2022/07/14 09:08:56;;;;;;;1.87;1.52;;;;;;;32.87;20.57;99685.50;4501011;31;33955;-62
2022/07/14 09:11:24;;;;;;;1.87;1.00;;;;;;;32.78;20.69;99679.63;4497011;31;33167;-64
2022/07/14 09:13:51;;;;;;;2.40;0.80;;;;;;;33.14;20.39;99678.03;4495477;31;33434;-63
2022/07/14 09:16:22;;;;;;;2.22;0.90;;;;;;;33.37;20.66;99679.59;4497148;31;35238;-62
2022/07/14 09:19:02;;;;;;;3.37;0.90;;;;;;;33.68;19.87;99676.19;4485131;31;33610;-63
2022/07/14 09:21:30;;;;;;;5.22;1.20;;;;;;;33.36;20.48;99664.06;4497590;31;33791;-65
2022/07/14 09:23:58;;;;;;;3.00;1.08;;;;;;;33.36;20.36;99666.84;4499612;31;34136;-63
2022/07/14 09:26:27;;;;;;;7.57;1.48;;;;;;;33.64;19.96;99664.81;4494475;31;33906;-62
2022/07/14 09:28:55;;;;;;;4.32;1.10;;;;;;;33.91;19.99;99659.13;4491114;31;32828;-63
2022/07/14 09:31:31;;;;;;;3.85;0.95;;;;;;;33.56;20.61;99665.34;4499736;31;32386;-65
2022/07/14 09:34:01;;;;;;;2.55;0.90;;;;;;;34.03;20.57;99658.94;4493690;31;33719;-63
2022/07/14 09:36:36;;;;;;;2.05;0.80;;;;;;;33.69;20.63;99664.03;4499322;31;32764;-62
2022/07/14 09:39:05;;;;;;;2.17;1.00;;;;;;;33.61;19.84;99663.44;4494521;31;35729;-63
2022/07/14 09:41:52;;;;;;;1.62;0.90;;;;;;;34.43;19.20;99657.41;4492899;31;34225;-63
2022/07/14 09:44:20;;;;;;;2.90;0.90;;;;;;;34.54;18.33;99654.41;4495574;31;33784;-66
2022/07/14 09:46:56;;;;;;;2.50;1.00;;;;;;;33.79;19.13;99653.78;4500394;31;35144;-66
2022/07/14 09:49:30;;;;;;;3.28;1.10;;;;;;;34.44;18.93;99656.28;4495362;31;35151;-63
2022/07/14 09:52:03;;;;;;;2.85;1.10;;;;;;;34.51;18.64;99649.38;4496629;31;33499;-64
2022/07/14 09:54:37;;;;;;;3.80;1.07;;;;;;;34.75;18.56;99646.94;4490683;31;33466;-64
2022/07/14 09:57:22;;;;;;;2.40;0.90;;;;;;;34.55;18.91;99638.56;4494784;31;33511;-62
2022/07/14 09:59:54;;;;;;;7.82;1.42;;;;;;;34.36;18.62;99649.34;4487214;31;33816;-64
2022/07/14 10:02:29;;;;;;;2.37;0.90;;;;;;;35.15;18.06;99636.94;4493836;31;34084;-63
2022/07/14 10:05:08;;;;;;;4.18;0.95;;;;;;;35.30;18.02;99638.06;4495842;31;33710;-63
2022/07/14 10:07:45;;;;;;;2.17;1.15;;;;;;;35.65;16.58;99631.59;4490653;31;35335;-62
2022/07/14 10:10:22;;;;;;;4.47;1.50;;;;;;;35.54;17.33;99636.38;4495406;31;33849;-65
2022/07/14 10:12:51;;;;;;;2.30;1.05;;;;;;;35.51;17.96;99633.25;4485636;31;32470;-64
2022/07/14 10:15:18;;;;;;;1.67;0.70;;;;;;;35.08;17.43;99641.13;4484250;31;34584;-64
2022/07/14 10:17:46;;;;;;;3.17;1.00;;;;;;;35.22;17.09;99628.34;4490258;31;34184;-61
2022/07/14 10:20:16;;;;;;;1.73;1.05;;;;;;;34.89;17.36;99629.69;4473393;31;32476;-62
2022/07/14 10:22:45;;;;;;;3.35;1.20;;;;;;;35.17;16.85;99622.75;4489596;31;32421;-64
2022/07/14 10:25:13;;;;;;;3.05;1.67;;;;;;;35.49;17.15;99621.59;4484495;31;33463;-62
2022/07/14 10:27:46;;;;;;;5.82;1.10;;;;;;;35.98;16.96;99607.78;4495874;31;34182;-65
2022/07/14 10:30:15;;;;;;;3.47;0.90;;;;;;;36.10;16.63;99610.28;4485163;31;33895;-66
2022/07/14 10:32:56;;;;;;;5.65;1.55;;;;;;;36.46;16.09;99605.31;4486122;31;34090;-63
2022/07/14 10:35:44;;;;;;;2.78;1.25;;;;;;;36.18;16.66;99604.09;4481013;31;34481;-63
2022/07/14 10:38:22;;;;;;;4.10;1.00;;;;;;;36.43;15.91;99608.69;4494316;31;33903;-65
2022/07/14 10:40:56;;;;;;;1.35;0.70;;;;;;;36.50;15.74;99600.03;4480006;31;33726;-62
2022/07/14 10:43:25;;;;;;;3.25;1.27;;;;;;;36.75;16.15;99593.44;4495052;31;34037;-64
2022/07/14 10:45:54;;;;;;;0.88;0.77;;;;;;;36.39;15.96;99600.06;4481107;31;32838;-64
2022/07/14 10:48:47;;;;;;;3.58;0.85;;;;;;;36.45;15.54;99600.88;4494861;31;34484;-63
2022/07/14 10:51:15;;;;;;;1.77;1.02;;;;;;;36.50;15.33;99591.66;4496594;31;34947;-63
2022/07/14 10:54:04;;;;;;;1.52;0.85;;;;;;;36.19;16.13;99585.44;4494415;31;32326;-65
2022/07/14 10:57:12;;;;;;;1.48;0.80;;;;;;;36.47;15.96;99583.84;4495452;31;34078;-62
2022/07/14 10:59:41;;;;;;;1.60;0.80;;;;;;;36.53;15.51;99577.16;4496034;31;32493;-63
2022/07/14 11:02:12;;;;;;;2.05;1.10;;;;;;;36.80;15.12;99576.66;4490461;31;36489;-64
2022/07/14 11:04:58;;;;;;;4.30;1.25;;;;;;;36.87;14.76;99577.16;4496078;31;33191;-65
2022/07/14 11:07:39;;;;;;;5.10;1.10;;;;;;;36.51;15.67;99574.66;4496613;31;33829;-62
2022/07/14 11:10:19;;;;;;;3.08;1.05;;;;;;;36.66;15.54;99562.53;4498216;31;33950;-63
2022/07/14 11:13:09;;;;;;;5.28;1.10;;;;;;;36.70;15.51;99572.00;4492374;31;33099;-63
2022/07/14 11:15:38;;;;;;;1.70;1.00;;;;;;;36.65;15.56;99558.09;4497993;31;32484;-65
2022/07/14 11:18:18;;;;;;;1.90;0.82;;;;;;;36.63;15.76;99552.00;4496915;31;33896;-63
2022/07/14 11:20:55;;;;;;;1.77;0.95;;;;;;;36.36;16.01;99556.06;4498784;31;34213;-63
2022/07/14 11:23:26;;;;;;;4.55;1.20;;;;;;;36.38;16.48;99556.63;4492861;31;33905;-64
2022/07/14 11:25:55;;;;;;;1.23;0.70;;;;;;;36.27;15.73;99554.19;4498272;31;33322;-63
2022/07/14 11:28:29;;;;;;;4.20;1.00;;;;;;;36.08;16.07;99554.84;4494768;31;34808;-63
2022/07/14 11:31:17;;;;;;;1.30;0.80;;;;;;;35.78;15.87;99552.22;4494516;31;33005;-62
2022/07/14 11:36:34;;;;;;;1.10;0.73;;;;;;;36.36;15.76;99547.69;4490844;31;32432;-66
2022/07/14 11:39:22;;;;;;;4.40;1.00;;;;;;;36.15;15.87;99523.91;4493019;31;33630;-66
2022/07/14 11:42:04;;;;;;;2.42;1.10;;;;;;;36.30;15.55;99537.72;4491305;31;32349;-63
2022/07/14 11:44:35;;;;;;;1.10;0.70;;;;;;;36.04;16.03;99539.00;4498673;31;34047;-63
2022/07/14 11:47:05;;;;;;;2.35;0.90;;;;;;;36.36;15.37;99536.56;4492280;31;32867;-62
2022/07/14 11:49:34;;;;;;;9.63;0.90;;;;;;;36.36;15.75;99536.56;4497779;31;34727;-65
2022/07/14 11:52:04;;;;;;;7.18;1.00;;;;;;;36.13;15.59;99529.75;4490241;31;32490;-62
2022/07/14 11:54:32;;;;;;;1.15;0.70;;;;;;;35.65;15.95;99531.41;4490994;31;34318;-64
2022/07/14 11:57:06;;;;;;;1.40;0.80;;;;;;;35.93;16.03;99527.91;4497939;31;34354;-67